createdAt,value
2019-01-06T00:04:43.555Z,11.65
2019-01-06T00:07:21.125Z,7.67
2019-01-06T00:09:53.490Z,11.97
2019-01-06T00:12:27.708Z,11.03
2019-01-06T00:15:00.592Z,8.40
2019-01-06T00:17:31.312Z,8.90
2019-01-06T00:20:04.620Z,9.80
2019-01-06T00:22:51.736Z,6.93
2019-01-06T00:25:28.062Z,8.97
2019-01-06T00:28:07.642Z,8.97
2019-01-06T00:30:38.637Z,8.37
2019-01-06T00:33:12.085Z,7.53
2019-01-06T00:35:46.095Z,9.40
2019-01-06T00:38:30.857Z,8.30
2019-01-06T00:41:13.467Z,9.73
2019-01-06T00:43:57.926Z,11.10
2019-01-06T00:46:28.150Z,6.63
2019-01-06T00:48:56.934Z,11.13
2019-01-06T00:51:30.538Z,9.50
2019-01-06T00:54:06.509Z,9.43
2019-01-06T00:56:42.657Z,10.83
2019-01-06T00:59:28.647Z,11.80
2019-01-06T01:02:07.882Z,9.40
2019-01-06T01:04:35.540Z,6.97
2019-01-06T01:07:17.949Z,8.60
2019-01-06T01:09:47.453Z,8.27
2019-01-06T01:12:17.267Z,7.87
2019-01-06T01:17:46.179Z,11.73
2019-01-06T01:20:20.531Z,7.83
2019-01-06T01:22:52.768Z,9.60
2019-01-06T01:25:36.095Z,8.53
2019-01-06T01:28:24.959Z,10.50
2019-01-06T01:30:57.128Z,11.20
2019-01-06T01:33:25.094Z,9.07
2019-01-06T01:35:58.795Z,9.03
2019-01-06T01:38:26.664Z,10.80
2019-01-06T01:40:56.378Z,7.53
2019-01-06T01:43:30.101Z,12.70
2019-01-06T01:46:18.221Z,7.93
2019-01-06T01:48:48.709Z,10.23
2019-01-06T01:51:18.804Z,7.87
2019-01-06T01:53:54.457Z,8.43
2019-01-06T01:56:26.113Z,10.70
2019-01-06T01:59:10.734Z,7.27
2019-01-06T02:01:43.007Z,9.20
2019-01-06T02:04:11.902Z,7.80
2019-01-06T02:06:41.602Z,6.67
2019-01-06T02:09:08.343Z,9.57
2019-01-06T02:11:37.337Z,7.57
2019-01-06T02:14:19.848Z,7.17
2019-01-06T02:16:52.630Z,6.23
2019-01-06T02:19:24.182Z,6.47
2019-01-06T02:21:51.844Z,6.23
2019-01-06T02:24:21.965Z,8.57
2019-01-06T02:26:48.704Z,7.30
2019-01-06T02:29:21.488Z,8.03
2019-01-06T02:31:49.251Z,7.67
2019-01-06T02:34:32.789Z,9.70
2019-01-06T02:37:02.599Z,8.30
2019-01-06T02:39:35.583Z,9.07
2019-01-06T02:42:04.375Z,7.87
2019-01-06T02:44:46.065Z,9.80
2019-01-06T02:47:16.596Z,11.53
2019-01-06T02:49:49.381Z,10.83
2019-01-06T02:52:18.495Z,14.67
2019-01-06T02:54:51.357Z,9.77
2019-01-06T02:57:33.865Z,13.37
2019-01-06T03:00:09.722Z,12.67
2019-01-06T03:02:39.637Z,8.20
2019-01-06T03:05:21.326Z,11.07
2019-01-06T03:07:49.193Z,13.50
2019-01-06T03:10:25.971Z,9.07
2019-01-06T03:13:09.606Z,11.40
2019-01-06T03:15:47.043Z,12.00
2019-01-06T03:18:20.699Z,10.57
2019-01-06T03:21:02.290Z,15.07
2019-01-06T03:23:31.415Z,14.00
2019-01-06T03:26:02.650Z,14.57
2019-01-06T03:28:45.349Z,10.70
2019-01-06T03:31:19.352Z,11.30
2019-01-06T03:34:03.196Z,9.93
2019-01-06T03:36:39.151Z,12.70
2019-01-06T03:39:21.793Z,9.33
2019-01-06T03:41:53.934Z,15.33
2019-01-06T03:44:27.001Z,11.57
2019-01-06T03:47:00.217Z,12.20
2019-01-06T03:49:29.953Z,7.50
2019-01-06T03:52:05.182Z,9.80
2019-01-06T03:54:53.233Z,11.90
2019-01-06T03:57:20.359Z,12.63
2019-01-06T03:59:57.049Z,14.13
2019-01-06T04:02:27.548Z,9.03
2019-01-06T04:04:58.393Z,13.40
2019-01-06T04:07:27.615Z,10.37
2019-01-06T04:10:12.759Z,10.90
2019-01-06T04:12:41.863Z,12.37
2019-01-06T04:15:11.572Z,12.73
2019-01-06T04:17:39.994Z,12.77
2019-01-06T04:20:13.061Z,9.23
2019-01-06T04:22:46.232Z,10.63
2019-01-06T04:25:21.359Z,10.77
2019-01-06T04:28:07.261Z,11.97
2019-01-06T04:30:40.580Z,12.27
2019-01-06T04:33:13.536Z,8.10
2019-01-06T04:35:43.148Z,14.60
2019-01-06T04:38:13.880Z,10.67
2019-01-06T04:40:57.415Z,7.77
2019-01-06T04:43:25.812Z,7.17
2019-01-06T04:45:55.300Z,7.50
2019-01-06T04:48:38.323Z,8.77
2019-01-06T04:51:05.587Z,7.97
2019-01-06T04:53:39.687Z,6.87
2019-01-06T04:56:09.603Z,6.17
2019-01-06T04:58:38.486Z,7.63
2019-01-06T05:01:11.487Z,6.20
2019-01-06T05:03:41.110Z,5.97
2019-01-06T05:06:40.310Z,5.57
2019-01-06T05:09:26.227Z,7.37
2019-01-06T05:11:59.161Z,6.07
2019-01-06T05:14:28.892Z,7.77
2019-01-06T05:17:01.746Z,5.20
2019-01-06T05:19:49.188Z,5.40
2019-01-06T05:22:16.060Z,5.80
2019-01-06T05:44:34.727Z,4.90
2019-01-06T05:47:02.491Z,4.70
2019-01-06T05:49:29.333Z,4.10
2019-01-06T05:51:59.971Z,3.93
2019-01-06T05:54:45.550Z,4.13
2019-01-06T05:57:29.291Z,3.97
2019-01-06T06:00:02.171Z,4.23
2019-01-06T06:02:33.827Z,3.73
2019-01-06T06:05:19.512Z,4.10
2019-01-06T06:08:02.124Z,3.90
2019-01-06T06:10:35.008Z,3.97
2019-01-06T06:13:07.795Z,3.80
2019-01-06T06:15:38.526Z,4.47
2019-01-06T06:18:08.237Z,3.80
2019-01-06T06:20:50.030Z,4.20
2019-01-06T06:23:37.554Z,4.00
2019-01-06T06:26:23.142Z,4.30
2019-01-06T06:28:52.847Z,4.27
2019-01-06T06:31:36.692Z,3.90
2019-01-06T06:34:07.225Z,4.47
2019-01-06T06:36:37.981Z,4.27
2019-01-06T06:39:11.555Z,4.37
2019-01-06T06:41:41.367Z,4.50
2019-01-06T06:44:09.110Z,4.50
2019-01-06T06:46:35.874Z,5.13
2019-01-06T06:49:06.604Z,4.30
2019-01-06T06:51:34.987Z,4.47
2019-01-06T06:54:16.884Z,6.90
2019-01-06T06:56:59.495Z,5.23
2019-01-06T06:59:31.047Z,4.10
2019-01-06T07:02:10.077Z,4.60
2019-01-06T07:04:38.864Z,4.27
2019-01-06T07:07:23.421Z,4.30
2019-01-06T07:09:50.161Z,4.60
2019-01-06T07:12:22.943Z,3.77
2019-01-06T07:14:56.650Z,4.00
2019-01-06T07:17:52.266Z,3.83
2019-01-06T07:20:35.697Z,3.97
2019-01-06T07:23:06.329Z,3.40
2019-01-06T07:25:37.062Z,3.30
2019-01-06T07:28:13.022Z,3.10
2019-01-06T07:30:56.686Z,3.30
2019-01-06T07:33:31.491Z,3.67
2019-01-06T07:36:04.473Z,3.00
2019-01-06T07:38:37.256Z,3.13
2019-01-06T07:41:22.026Z,3.00
2019-01-06T07:46:48.436Z,8.35
2019-01-06T07:49:30.061Z,3.50
2019-01-06T07:52:12.571Z,3.40
2019-01-06T07:54:43.203Z,3.00
2019-01-06T07:57:26.943Z,2.90
2019-01-06T08:00:15.113Z,2.70
2019-01-06T08:02:42.335Z,2.77
2019-01-06T08:05:25.757Z,2.90
2019-01-06T08:07:55.754Z,2.90
2019-01-06T08:10:24.068Z,3.37
2019-01-06T08:12:50.792Z,3.80
2019-01-06T08:15:24.471Z,3.60
2019-01-06T08:17:57.183Z,3.40
2019-01-06T08:20:23.975Z,3.23
2019-01-06T08:25:50.502Z,3.55
2019-01-06T08:28:35.080Z,2.57
2019-01-06T08:31:04.719Z,3.17
2019-01-06T08:36:39.251Z,3.00
2019-01-06T08:39:15.962Z,2.67
2019-01-06T08:41:59.548Z,2.37
2019-01-06T08:44:26.277Z,2.30
2019-01-06T08:46:59.016Z,2.60
2019-01-06T08:49:31.951Z,2.37
2019-01-06T08:52:13.602Z,3.53
2019-01-06T08:54:41.325Z,2.50
2019-01-06T08:57:22.887Z,2.43
2019-01-06T08:59:55.584Z,2.80
2019-01-06T09:02:26.190Z,5.33
2019-01-06T09:04:58.951Z,3.07
2019-01-06T09:07:29.555Z,6.17
2019-01-06T09:10:06.926Z,4.03
2019-01-06T09:12:42.988Z,7.50
2019-01-06T09:18:04.282Z,12.52
2019-01-06T09:20:47.014Z,20.47
2019-01-06T09:23:13.784Z,4.27
2019-01-06T09:25:59.089Z,3.83
2019-01-06T09:31:27.765Z,16.67
2019-01-06T09:33:57.292Z,3.50
2019-01-06T09:36:27.043Z,5.77
2019-01-06T09:39:09.902Z,3.70
2019-01-06T09:41:54.645Z,23.37
2019-01-06T09:44:22.771Z,14.67
2019-01-06T09:49:44.425Z,8.50
2019-01-06T09:52:17.420Z,4.57
2019-01-06T09:54:45.054Z,5.90
2019-01-06T09:57:17.817Z,4.10
2019-01-06T09:59:50.353Z,3.63
2019-01-06T10:05:15.997Z,14.65
2019-01-06T10:08:01.681Z,4.20
2019-01-06T10:10:43.134Z,3.37
2019-01-06T10:13:25.728Z,3.73
2019-01-06T10:15:54.443Z,3.47
2019-01-06T10:18:27.173Z,3.63
2019-01-06T10:20:57.528Z,4.83
2019-01-06T10:23:24.330Z,10.60
2019-01-06T10:28:58.373Z,8.13
2019-01-06T10:31:40.731Z,3.00
2019-01-06T10:34:11.323Z,3.77
2019-01-06T10:39:43.713Z,6.78
2019-01-06T10:42:17.249Z,3.47
2019-01-06T10:44:51.646Z,3.00
2019-01-06T10:47:19.402Z,2.50
2019-01-06T10:52:54.680Z,3.90
2019-01-06T10:58:28.333Z,12.60
2019-01-06T11:01:13.754Z,9.63
2019-01-06T11:03:48.600Z,13.13
2019-01-06T11:06:23.941Z,4.43
2019-01-06T11:08:57.823Z,18.57
2019-01-06T11:11:30.672Z,8.17
2019-01-06T11:13:58.308Z,10.30
2019-01-06T11:16:30.059Z,3.03
2019-01-06T11:19:00.760Z,2.87
2019-01-06T11:24:29.381Z,5.78
2019-01-06T11:27:01.661Z,3.10
2019-01-06T11:29:34.525Z,11.10
2019-01-06T11:32:03.194Z,3.17
2019-01-06T11:34:35.949Z,2.90
2019-01-06T11:39:56.365Z,3.90
2019-01-06T11:42:29.053Z,3.17
2019-01-06T11:45:00.473Z,2.70
2019-01-06T11:47:47.203Z,2.80
2019-01-06T11:50:25.075Z,2.40
2019-01-06T11:52:53.842Z,2.80
2019-01-06T11:55:26.653Z,2.70
2019-01-06T11:58:02.537Z,2.20
2019-01-06T12:00:42.183Z,2.57
2019-01-06T12:03:09.936Z,2.40
2019-01-06T12:05:41.586Z,2.70
2019-01-06T12:08:09.091Z,2.43
2019-01-06T12:10:39.550Z,2.30
2019-01-06T12:13:12.419Z,2.50
2019-01-06T12:18:43.090Z,3.53
2019-01-06T12:21:13.866Z,3.83
2019-01-06T12:23:40.716Z,3.50
2019-01-06T12:26:14.280Z,2.73
2019-01-06T12:28:50.293Z,3.10
2019-01-06T12:34:17.760Z,4.57
2019-01-06T12:36:51.019Z,3.40
2019-01-06T12:42:31.789Z,4.70
2019-01-06T12:47:56.362Z,5.15
2019-01-06T12:50:27.208Z,4.03
2019-01-06T12:53:09.101Z,3.57
2019-01-06T12:55:50.746Z,3.63
2019-01-06T12:58:22.573Z,3.90
2019-01-06T13:00:55.328Z,4.20
2019-01-06T13:03:23.614Z,4.00
2019-01-06T13:09:10.977Z,6.65
2019-01-06T13:11:38.775Z,5.07
2019-01-06T13:14:22.369Z,5.23
2019-01-06T13:17:05.816Z,4.80
2019-01-06T13:19:34.637Z,4.77
2019-01-06T13:22:05.118Z,4.80
2019-01-06T13:27:24.209Z,6.50
2019-01-06T13:29:54.002Z,4.80
2019-01-06T13:32:37.191Z,5.03
2019-01-06T13:35:21.269Z,4.33
2019-01-06T13:37:48.061Z,4.63
2019-01-06T13:40:20.946Z,4.83
2019-01-06T13:42:51.741Z,5.10
2019-01-06T13:45:25.374Z,4.60
2019-01-06T13:48:06.941Z,5.23
2019-01-06T13:50:42.687Z,5.20
2019-01-06T13:53:28.186Z,4.87
2019-01-06T13:56:00.094Z,4.03
2019-01-06T13:58:30.558Z,4.90
2019-01-06T14:03:55.866Z,8.77
2019-01-06T14:09:28.032Z,14.95
2019-01-06T14:12:07.531Z,11.97
2019-01-06T14:14:40.841Z,10.70
2019-01-06T14:17:14.151Z,11.37
2019-01-06T14:19:44.675Z,9.50
2019-01-06T14:22:18.470Z,9.20
2019-01-06T14:24:49.228Z,7.20
2019-01-06T14:27:22.864Z,6.97
2019-01-06T14:29:53.277Z,7.43
2019-01-06T14:32:27.602Z,6.30
2019-01-06T14:34:55.381Z,5.47
2019-01-06T14:37:37.065Z,5.33
2019-01-06T14:40:05.419Z,5.23
2019-01-06T14:42:38.342Z,5.63
2019-01-06T14:45:08.057Z,5.00
2019-01-06T14:47:40.880Z,5.00
2019-01-06T14:53:06.512Z,8.30
2019-01-06T14:55:49.261Z,6.40
2019-01-06T14:58:22.636Z,6.60
2019-01-06T15:01:09.169Z,5.50
2019-01-06T15:03:42.541Z,6.60
2019-01-06T15:09:05.368Z,9.13
2019-01-06T15:11:48.891Z,6.90
2019-01-06T15:14:27.546Z,6.47
2019-01-06T15:17:00.269Z,6.27
2019-01-06T15:22:30.999Z,8.95
2019-01-06T15:25:00.468Z,7.47
2019-01-06T15:27:33.107Z,6.57
2019-01-06T15:30:05.945Z,7.77
2019-01-06T15:32:37.696Z,6.93
2019-01-06T15:35:07.431Z,6.43
2019-01-06T15:37:37.247Z,6.60
2019-01-06T15:43:07.919Z,8.57
2019-01-06T15:45:50.295Z,6.33
2019-01-06T15:48:23.684Z,6.63
2019-01-06T15:53:51.633Z,8.13
2019-01-06T15:56:36.151Z,6.13
2019-01-06T16:02:05.868Z,8.18
2019-01-06T16:04:38.679Z,6.37
2019-01-06T16:07:12.365Z,5.70
2019-01-06T16:09:51.874Z,6.37
2019-01-06T16:12:20.534Z,5.93
2019-01-06T16:15:06.787Z,7.00
2019-01-06T16:17:40.956Z,7.13
2019-01-06T16:20:14.643Z,7.20
2019-01-06T16:22:44.594Z,6.73
2019-01-06T16:25:13.002Z,7.57
2019-01-06T16:27:56.188Z,7.87
2019-01-06T16:30:28.013Z,7.93
2019-01-06T16:33:01.535Z,8.57
2019-01-06T16:35:32.142Z,8.00
2019-01-06T16:38:16.755Z,7.50
2019-01-06T16:40:46.440Z,8.13
2019-01-06T16:43:13.223Z,8.57
2019-01-06T16:45:54.869Z,8.13
2019-01-06T16:48:23.503Z,8.20
2019-01-06T16:51:05.904Z,8.13
2019-01-06T16:56:31.838Z,10.70
2019-01-06T16:59:05.517Z,7.43
2019-01-06T17:01:37.137Z,7.37
2019-01-06T17:04:11.673Z,7.00
2019-01-06T17:06:44.534Z,6.77
2019-01-06T17:09:17.229Z,6.93
2019-01-06T17:11:43.934Z,7.00
2019-01-06T17:14:18.023Z,7.30
2019-01-06T17:16:48.733Z,6.73
2019-01-06T17:19:21.487Z,7.03
2019-01-06T17:21:48.912Z,6.43
2019-01-06T17:24:15.592Z,6.50
2019-01-06T17:26:48.120Z,6.90
2019-01-06T17:29:20.760Z,6.30
2019-01-06T17:31:54.374Z,6.07
2019-01-06T17:37:16.131Z,8.50
2019-01-06T17:39:48.769Z,6.53
2019-01-06T17:42:18.523Z,6.17
2019-01-06T17:44:48.142Z,6.27
2019-01-06T17:50:13.273Z,8.23
2019-01-06T17:52:42.762Z,7.13
2019-01-06T17:55:15.627Z,6.27
2019-01-06T17:57:59.051Z,6.87
2019-01-06T18:00:41.187Z,6.47
2019-01-06T18:03:23.817Z,6.30
2019-01-06T18:05:55.527Z,6.90
2019-01-06T18:08:22.337Z,6.53
2019-01-06T18:10:52.725Z,6.70
2019-01-06T18:13:25.569Z,6.60
2019-01-06T18:18:52.930Z,8.27
2019-01-06T18:21:37.180Z,6.43
2019-01-06T18:27:20.651Z,8.32
2019-01-06T18:30:00.439Z,6.60
2019-01-06T18:35:26.180Z,7.80
2019-01-06T18:38:07.721Z,6.80
2019-01-06T18:40:53.321Z,5.83
2019-01-06T18:43:24.069Z,6.00
2019-01-06T18:45:56.726Z,6.17
2019-01-06T18:48:26.510Z,6.00
2019-01-06T18:53:44.390Z,8.07
2019-01-06T18:59:12.382Z,9.00
2019-01-06T19:01:45.102Z,7.00
2019-01-06T19:04:13.797Z,6.13
2019-01-06T19:06:47.222Z,6.67
2019-01-06T19:09:17.715Z,6.20
2019-01-06T19:11:59.416Z,6.73
2019-01-06T19:14:26.899Z,6.57
2019-01-06T19:17:00.408Z,7.07
2019-01-06T19:19:42.022Z,8.00
2019-01-06T19:22:10.697Z,7.20
2019-01-06T19:24:43.706Z,7.83
2019-01-06T19:27:16.544Z,7.73
2019-01-06T19:29:50.195Z,8.60
2019-01-06T19:32:23.112Z,7.93
2019-01-06T19:34:53.057Z,7.63
2019-01-06T19:40:17.828Z,11.10
2019-01-06T19:42:44.903Z,7.97
2019-01-06T19:45:12.585Z,7.53
2019-01-06T19:50:39.209Z,9.77
2019-01-06T19:53:06.940Z,7.30
2019-01-06T19:58:32.865Z,9.68
2019-01-06T20:01:09.532Z,7.20
2019-01-06T20:06:43.182Z,8.60
2019-01-06T20:09:16.014Z,6.77
2019-01-06T20:12:01.352Z,6.50
2019-01-06T20:14:29.067Z,6.00
2019-01-06T20:16:55.839Z,7.07
2019-01-06T20:19:28.598Z,7.03
2019-01-06T20:21:55.300Z,7.10
2019-01-06T20:24:27.596Z,6.60
2019-01-06T20:27:00.835Z,6.20
2019-01-06T20:29:30.438Z,6.23
2019-01-06T20:31:59.207Z,6.37
2019-01-06T20:34:40.877Z,6.10
2019-01-06T20:37:28.341Z,6.10
2019-01-06T20:43:07.789Z,8.60
2019-01-06T20:45:35.570Z,6.27
2019-01-06T20:48:20.159Z,5.90
2019-01-06T20:50:51.605Z,5.80
2019-01-06T20:53:22.972Z,6.03
2019-01-06T20:56:06.360Z,6.00
2019-01-06T21:01:44.038Z,8.10
2019-01-06T21:04:22.661Z,6.00
2019-01-06T21:06:49.436Z,5.57
2019-01-06T21:09:31.955Z,5.90
2019-01-06T21:12:15.528Z,6.27
2019-01-06T21:14:45.663Z,6.33
2019-01-06T21:17:18.320Z,6.63
2019-01-06T21:20:00.882Z,6.10
2019-01-06T21:22:33.612Z,6.13
2019-01-06T21:25:16.077Z,5.90
2019-01-06T21:27:50.626Z,5.40
2019-01-06T21:33:29.529Z,7.80
2019-01-06T21:38:52.283Z,7.57
2019-01-06T21:41:34.002Z,6.03
2019-01-06T21:44:19.486Z,5.40
2019-01-06T21:46:52.234Z,5.53
2019-01-06T21:49:35.834Z,5.60
2019-01-06T21:52:03.485Z,4.77
2019-01-06T21:54:36.557Z,4.73
2019-01-06T21:57:21.014Z,5.07
2019-01-06T21:59:50.671Z,5.20
2019-01-06T22:02:18.148Z,5.43
2019-01-06T22:04:47.738Z,5.37
2019-01-06T22:07:30.087Z,4.77
2019-01-06T22:09:59.593Z,4.97
2019-01-06T22:12:27.330Z,5.03
2019-01-06T22:14:57.967Z,4.63
2019-01-06T22:17:30.732Z,4.53
2019-01-06T22:20:03.653Z,5.13
2019-01-06T22:22:47.427Z,5.07
2019-01-06T22:25:29.406Z,4.30
2019-01-06T22:28:15.120Z,4.83
2019-01-06T22:30:48.953Z,4.40
2019-01-06T22:33:15.737Z,4.67
2019-01-06T22:35:43.496Z,4.37
2019-01-06T22:38:30.113Z,4.50
2019-01-06T22:41:03.147Z,4.67
2019-01-06T22:43:31.859Z,4.83
2019-01-06T22:46:15.211Z,4.80
2019-01-06T22:51:52.594Z,6.68
2019-01-06T22:54:25.368Z,4.60
2019-01-06T22:57:12.928Z,4.40
2019-01-06T22:59:51.648Z,4.63
2019-01-06T23:02:34.222Z,4.60
2019-01-06T23:07:57.541Z,5.90
2019-01-06T23:10:41.150Z,4.60
2019-01-06T23:13:11.767Z,4.53
2019-01-06T23:15:41.502Z,4.33
2019-01-06T23:18:08.309Z,3.60
2019-01-06T23:20:41.094Z,4.00
2019-01-06T23:23:14.438Z,3.90
2019-01-06T23:28:40.089Z,6.15
2019-01-06T23:31:14.748Z,4.67
2019-01-06T23:33:46.362Z,4.40
2019-01-06T23:36:13.097Z,4.83
2019-01-06T23:38:43.727Z,5.13
2019-01-06T23:41:26.442Z,5.20
2019-01-06T23:44:03.080Z,5.10
2019-01-06T23:49:28.945Z,6.93
2019-01-06T23:51:58.633Z,4.87
2019-01-06T23:54:30.386Z,4.60
2019-01-06T23:57:02.039Z,4.57
2019-01-06T23:59:30.546Z,4.33
